Cajon Junction, California
Current Conditions -  °F | °C
As of 10:35 AM on Wednesday 26 Nov 2014 (Local Time) from KVCV Reporting Station
Clear Clear  
Wind Chill: 61°   Ceiling: Unl
Heat Index: 61°   Visibility: 10mi
Dew Point:   Wind: 0mph
Humidity: 13%   Direction: NA
Pressure: 30.41"   Gusts: NA
Location:  34.2759°N, 117.303°W
Report Text: KVCV 261835Z AUTO 00000KT 10SM CLR 16/M13 A3041 RMK AO2
Loading
Personal Weather Stations






























Interactive Weather Map New forecast layout! Learn more

10-Day Weather Forecast

Advertisements
Track Severe Weather on mobile